Terminal Aerodrome Forecast
Issued by NWS

Home | Current Version | Previous Version | Text Only | Print | Product List | Glossary On
Versions: 1 2 3 4 5 6 7 8 9 10 11 12 13 14 15 16 17 18 19 20 21 22 23 24 25
000
FTUS45 KRIW 041130
TAFPNA
TAF
KPNA 041130Z 0412/0512 VRB06KT P6SM FEW110
     FM041600 21010KT P6SM FEW090
     FM041900 21015G23KT P6SM SCT090
     FM050100 VRB08G15KT P6SM VCTS SCT080CB BKN110
     FM050700 VRB06KT P6SM SCT110
      AMD LTD TO CLD VIS AND WIND=

USA.gov is the U.S. government's official web portal to all federal, state and local government web resources and services.